createdAt,value
2022-10-19T00:02:00.957Z,6.15
2022-10-19T00:05:02.533Z,6.28
2022-10-19T00:08:04.099Z,6.57
2022-10-19T00:11:05.740Z,6.35
2022-10-19T00:14:08.642Z,5.72
2022-10-19T00:17:10.077Z,5.80
2022-10-19T00:20:12.043Z,6.03
2022-10-19T00:23:13.628Z,5.82
2022-10-19T00:26:15.313Z,6.10
2022-10-19T00:29:17.606Z,5.53
2022-10-19T00:32:19.130Z,5.20
2022-10-19T00:35:20.575Z,5.45
2022-10-19T00:38:22.279Z,5.35
2022-10-19T00:41:28.288Z,5.68
2022-10-19T00:44:29.628Z,5.18
2022-10-19T00:47:31.761Z,5.43
2022-10-19T00:53:35.618Z,5.50
2022-10-19T00:56:40.949Z,5.35
2022-10-19T00:59:44.373Z,5.35
2022-10-19T01:02:46.187Z,5.30
2022-10-19T01:05:47.829Z,5.25
2022-10-19T01:08:49.227Z,4.90
2022-10-19T01:12:35.237Z,4.93
2022-10-19T01:15:58.515Z,5.07
2022-10-19T01:19:09.075Z,5.55
2022-10-19T01:22:48.007Z,4.93
2022-10-19T01:26:08.250Z,5.00
2022-10-19T01:29:31.683Z,5.07
2022-10-19T01:32:48.333Z,5.65
2022-10-19T01:36:02.066Z,7.25
2022-10-19T01:39:13.220Z,6.32
2022-10-19T01:42:33.275Z,6.32
2022-10-19T01:45:44.518Z,6.38
2022-10-19T01:48:55.043Z,6.18
2022-10-19T01:52:02.211Z,6.28
2022-10-19T01:55:04.674Z,6.30
2022-10-19T01:58:09.705Z,6.35
2022-10-19T02:01:15.218Z,6.65
2022-10-19T02:04:19.457Z,6.15
2022-10-19T02:07:22.796Z,6.63
2022-10-19T02:10:25.539Z,6.43
2022-10-19T02:13:29.234Z,6.63
2022-10-19T02:16:40.603Z,6.53
2022-10-19T02:19:42.999Z,6.77
2022-10-19T02:22:44.718Z,6.45
2022-10-19T02:25:46.462Z,6.75
2022-10-19T02:28:49.200Z,6.38
2022-10-19T02:31:51.259Z,6.47
2022-10-19T02:34:52.740Z,6.15
2022-10-19T02:37:57.928Z,5.88
2022-10-19T02:41:06.420Z,6.00
2022-10-19T02:44:17.014Z,6.43
2022-10-19T02:47:24.176Z,5.78
2022-10-19T02:50:25.771Z,5.90
2022-10-19T02:53:27.194Z,6.00
2022-10-19T02:56:28.832Z,6.30
2022-10-19T02:59:30.256Z,5.93
2022-10-19T03:02:31.706Z,5.93
2022-10-19T03:05:33.138Z,6.00
2022-10-19T03:08:34.626Z,6.20
2022-10-19T03:11:36.128Z,6.28
2022-10-19T03:14:37.517Z,5.95
2022-10-19T03:17:38.923Z,6.50
2022-10-19T03:20:40.314Z,6.27
2022-10-19T03:23:41.881Z,6.13
2022-10-19T03:26:43.371Z,6.47
2022-10-19T03:29:44.811Z,6.03
2022-10-19T03:32:46.226Z,5.73
2022-10-19T03:35:47.761Z,6.45
2022-10-19T03:38:56.805Z,5.80
2022-10-19T03:41:58.227Z,5.82
2022-10-19T03:44:59.671Z,6.25
2022-10-19T03:48:01.083Z,5.88
2022-10-19T03:51:05.593Z,5.60
2022-10-19T03:54:08.615Z,5.88
2022-10-19T03:57:10.450Z,6.25
2022-10-19T04:00:12.552Z,6.18
2022-10-19T04:03:13.901Z,6.30
2022-10-19T04:06:21.192Z,6.37
2022-10-19T04:09:23.906Z,7.00
2022-10-19T04:12:25.303Z,6.88
2022-10-19T04:15:26.696Z,6.97
2022-10-19T04:18:28.143Z,6.83
2022-10-19T04:21:32.104Z,7.40
2022-10-19T04:24:33.580Z,6.85
2022-10-19T04:27:35.165Z,7.57
2022-10-19T04:30:36.756Z,6.95
2022-10-19T04:33:39.253Z,7.87
2022-10-19T04:36:40.704Z,6.90
2022-10-19T04:39:43.348Z,6.55
2022-10-19T04:42:44.765Z,7.00
2022-10-19T04:45:46.198Z,7.00
2022-10-19T04:48:48.980Z,7.60
2022-10-19T04:51:50.403Z,7.05
2022-10-19T04:54:51.781Z,7.68
2022-10-19T04:57:53.165Z,7.67
2022-10-19T05:00:54.596Z,7.60
2022-10-19T05:03:58.582Z,7.87
2022-10-19T05:07:00.201Z,7.80
2022-10-19T05:10:01.759Z,7.70
2022-10-19T05:13:03.535Z,8.15
2022-10-19T05:16:07.060Z,8.43
2022-10-19T05:19:14.692Z,7.57
2022-10-19T05:22:16.112Z,7.97
2022-10-19T05:25:17.653Z,8.25
2022-10-19T05:28:19.041Z,8.05
2022-10-19T05:31:20.664Z,7.40
2022-10-19T05:34:22.104Z,8.25
2022-10-19T05:37:23.647Z,7.57
2022-10-19T05:40:25.224Z,6.38
2022-10-19T05:43:26.606Z,7.10
2022-10-19T05:46:29.636Z,7.20
2022-10-19T05:49:31.083Z,7.35
2022-10-19T05:52:32.541Z,7.15
2022-10-19T05:55:35.586Z,7.80
2022-10-19T05:58:37.034Z,7.80
2022-10-19T06:01:38.506Z,8.32
2022-10-19T06:04:39.990Z,8.45
2022-10-19T06:07:41.512Z,8.43
2022-10-19T06:10:43.929Z,9.15
2022-10-19T06:13:47.304Z,8.48
2022-10-19T06:16:48.683Z,8.00
2022-10-19T06:19:50.109Z,9.23
2022-10-19T06:22:51.504Z,9.17
2022-10-19T06:25:53.020Z,8.85
2022-10-19T06:28:56.678Z,8.35
2022-10-19T06:32:00.185Z,7.90
2022-10-19T06:35:01.584Z,7.93
2022-10-19T06:38:02.958Z,7.90
2022-10-19T06:41:04.725Z,8.17
2022-10-19T06:44:06.119Z,8.00
2022-10-19T06:47:07.551Z,8.43
2022-10-19T06:50:09.629Z,8.35
2022-10-19T06:53:11.570Z,8.27
2022-10-19T06:56:13.177Z,7.80
2022-10-19T06:59:15.023Z,6.90
2022-10-19T07:02:16.603Z,6.55
2022-10-19T07:05:18.116Z,7.27
2022-10-19T07:08:19.760Z,7.63
2022-10-19T07:11:22.427Z,7.75
2022-10-19T07:14:28.603Z,7.53
2022-10-19T07:17:30.059Z,7.22
2022-10-19T07:20:31.493Z,6.93
2022-10-19T07:23:34.462Z,7.43
2022-10-19T07:26:35.968Z,7.35
2022-10-19T07:29:37.389Z,7.60
2022-10-19T07:32:39.124Z,8.07
2022-10-19T07:35:42.501Z,8.00
2022-10-19T07:38:43.966Z,7.88
2022-10-19T07:41:45.697Z,8.65
2022-10-19T07:44:47.099Z,8.23
2022-10-19T07:47:48.595Z,8.70
2022-10-19T07:50:50.353Z,8.57
2022-10-19T07:53:52.243Z,8.23
2022-10-19T07:56:53.765Z,8.18
2022-10-19T07:59:55.306Z,8.55
2022-10-19T08:03:31.225Z,8.90
2022-10-19T08:06:19.302Z,9.02
2022-10-19T08:12:43.029Z,7.47
2022-10-19T08:15:44.500Z,8.68
2022-10-19T08:18:46.666Z,8.40
2022-10-19T08:24:49.855Z,9.60
2022-10-19T08:27:51.239Z,9.60
2022-10-19T08:30:57.898Z,9.30
2022-10-19T08:33:59.502Z,10.27
2022-10-19T08:37:06.815Z,9.38
2022-10-19T08:40:24.029Z,9.57
2022-10-19T08:43:38.685Z,10.18
2022-10-19T08:46:54.776Z,10.63
2022-10-19T08:49:58.518Z,11.23
2022-10-19T08:53:20.696Z,10.10
2022-10-19T08:56:51.403Z,9.23
2022-10-19T09:00:02.772Z,9.38
2022-10-19T09:03:37.407Z,10.05
2022-10-19T09:06:50.834Z,9.55
2022-10-19T09:10:13.271Z,10.63
2022-10-19T09:16:20.275Z,9.50
2022-10-19T09:19:26.201Z,10.93
2022-10-19T09:22:34.939Z,9.93
2022-10-19T09:25:38.817Z,9.88
2022-10-19T09:28:54.926Z,10.15
2022-10-19T09:31:59.495Z,9.35
2022-10-19T09:35:04.293Z,9.48
2022-10-19T09:38:07.669Z,9.40
2022-10-19T09:41:18.867Z,9.63
2022-10-19T09:44:20.519Z,9.15
2022-10-19T09:47:40.270Z,9.73
2022-10-19T09:50:44.727Z,8.93
2022-10-19T09:53:56.023Z,9.45
2022-10-19T09:56:57.510Z,9.10
2022-10-19T09:59:59.012Z,11.57
2022-10-19T10:03:00.788Z,9.27
2022-10-19T10:06:05.819Z,9.60
2022-10-19T10:09:07.341Z,9.48
2022-10-19T10:12:09.616Z,9.20
2022-10-19T10:15:17.844Z,9.38
2022-10-19T10:18:19.520Z,12.82
2022-10-19T10:21:25.898Z,9.88
2022-10-19T10:24:30.644Z,9.10
2022-10-19T10:27:36.920Z,9.43
2022-10-19T10:30:38.631Z,10.95
2022-10-19T10:33:45.124Z,10.82
2022-10-19T10:36:51.259Z,11.10
2022-10-19T10:39:56.842Z,10.77
2022-10-19T10:43:06.808Z,10.55
2022-10-19T10:46:16.950Z,11.90
2022-10-19T10:49:25.840Z,12.40
2022-10-19T10:52:31.341Z,12.43
2022-10-19T10:55:34.276Z,11.95
2022-10-19T10:58:43.700Z,12.45
2022-10-19T11:02:11.414Z,12.75
2022-10-19T11:05:45.259Z,15.25
2022-10-19T11:08:52.407Z,13.35
2022-10-19T11:11:56.079Z,13.18
2022-10-19T11:15:06.548Z,13.85
2022-10-19T11:18:16.764Z,14.45
2022-10-19T11:21:34.198Z,14.35
2022-10-19T11:24:48.640Z,15.23
2022-10-19T11:27:56.044Z,13.98
2022-10-19T11:31:16.348Z,14.07
2022-10-19T11:34:25.930Z,14.18
2022-10-19T11:38:18.306Z,15.85
2022-10-19T11:41:35.829Z,15.07
2022-10-19T11:44:55.911Z,14.57
2022-10-19T11:48:29.051Z,13.95
2022-10-19T11:52:13.973Z,14.05
2022-10-19T11:55:57.286Z,14.85
2022-10-19T11:59:29.238Z,13.70
2022-10-19T12:02:33.878Z,13.90
2022-10-19T12:05:48.528Z,13.30
2022-10-19T12:09:11.250Z,13.18
2022-10-19T12:12:32.328Z,13.73
2022-10-19T12:15:50.419Z,13.40
2022-10-19T12:18:55.729Z,13.75
2022-10-19T12:22:01.481Z,13.07
2022-10-19T12:25:04.478Z,13.45
2022-10-19T12:28:05.875Z,13.90
2022-10-19T12:31:10.692Z,14.18
2022-10-19T12:34:36.697Z,14.35
2022-10-19T12:37:47.770Z,13.20
2022-10-19T12:41:00.291Z,12.93
2022-10-19T12:44:06.658Z,12.65
2022-10-19T12:47:28.400Z,13.45
2022-10-19T12:50:49.955Z,13.57
2022-10-19T12:53:51.397Z,14.10
2022-10-19T12:56:55.100Z,13.85
2022-10-19T12:59:59.966Z,12.75
2022-10-19T13:03:16.001Z,13.25
2022-10-19T13:06:23.471Z,12.70
2022-10-19T13:09:46.880Z,12.65
2022-10-19T13:12:49.514Z,11.65
2022-10-19T13:15:52.417Z,11.25
2022-10-19T13:19:00.086Z,11.50
2022-10-19T13:22:01.592Z,11.43
2022-10-19T13:25:31.472Z,10.43
2022-10-19T13:28:37.719Z,9.30
2022-10-19T13:31:39.532Z,10.93
2022-10-19T13:34:41.204Z,8.73
2022-10-19T13:37:43.572Z,8.57
2022-10-19T13:41:15.620Z,8.77
2022-10-19T13:44:22.123Z,7.30
2022-10-19T13:50:57.847Z,7.88
2022-10-19T13:54:06.264Z,7.68
2022-10-19T13:57:26.435Z,8.07
2022-10-19T14:00:57.195Z,7.10
2022-10-19T14:04:30.454Z,6.85
2022-10-19T14:08:01.063Z,6.55
2022-10-19T14:11:13.148Z,7.07
2022-10-19T14:17:21.050Z,7.80
2022-10-19T14:20:34.486Z,7.03
2022-10-19T14:23:39.993Z,7.30
2022-10-19T14:26:41.639Z,7.20
2022-10-19T14:29:46.496Z,6.30
2022-10-19T14:32:48.390Z,6.57
2022-10-19T14:35:50.479Z,5.65
2022-10-19T14:42:00.480Z,4.35
2022-10-19T14:45:12.055Z,3.78
2022-10-19T14:48:18.049Z,3.85
2022-10-19T14:51:39.254Z,4.13
2022-10-19T14:54:44.971Z,4.27
2022-10-19T14:57:50.169Z,4.10
2022-10-19T15:00:53.753Z,3.70
2022-10-19T15:03:55.822Z,3.80
2022-10-19T15:06:59.732Z,4.28
2022-10-19T15:10:03.683Z,3.90
2022-10-19T15:13:07.142Z,4.18
2022-10-19T15:16:29.698Z,4.15
2022-10-19T15:19:49.429Z,4.45
2022-10-19T15:22:50.977Z,4.40
2022-10-19T15:25:59.754Z,5.03
2022-10-19T15:29:10.327Z,4.80
2022-10-19T15:32:35.306Z,5.60
2022-10-19T15:35:39.649Z,4.80
2022-10-19T15:38:41.119Z,5.18
2022-10-19T15:41:42.650Z,4.75
2022-10-19T15:44:44.517Z,5.00
2022-10-19T15:48:26.138Z,5.13
2022-10-19T15:51:27.553Z,4.60
2022-10-19T15:54:29.022Z,5.10
2022-10-19T15:57:31.738Z,4.63
2022-10-19T16:00:33.829Z,4.75
2022-10-19T16:03:35.256Z,4.55
2022-10-19T16:06:39.614Z,4.80
2022-10-19T16:09:41.031Z,4.80
2022-10-19T16:12:42.735Z,4.53
2022-10-19T16:15:44.163Z,4.78
2022-10-19T16:18:45.550Z,4.85
2022-10-19T16:21:50.304Z,4.90
2022-10-19T16:24:51.903Z,5.40
2022-10-19T16:27:53.316Z,5.00
2022-10-19T16:30:55.637Z,5.05
2022-10-19T16:33:57.197Z,4.78
2022-10-19T16:37:01.490Z,5.15
2022-10-19T16:40:06.335Z,5.32
2022-10-19T16:46:09.074Z,5.22
2022-10-19T16:49:10.589Z,4.10
2022-10-19T16:52:15.321Z,4.80
2022-10-19T16:55:16.877Z,4.30
2022-10-19T16:58:18.398Z,5.18
2022-10-19T17:01:20.017Z,4.97
2022-10-19T17:04:22.056Z,5.20
2022-10-19T17:10:25.243Z,5.50
2022-10-19T17:13:26.872Z,4.97
2022-10-19T17:16:30.227Z,4.90
2022-10-19T17:19:32.076Z,5.65
2022-10-19T17:22:34.176Z,6.00
2022-10-19T17:25:35.919Z,7.22
2022-10-19T17:28:38.963Z,6.40
2022-10-19T17:31:41.797Z,6.80
2022-10-19T17:34:43.419Z,6.20
2022-10-19T17:37:45.026Z,6.50
2022-10-19T17:40:46.962Z,6.82
2022-10-19T17:43:51.777Z,6.90
2022-10-19T17:46:53.481Z,6.82
2022-10-19T17:49:55.239Z,7.57
2022-10-19T17:52:58.199Z,7.70
2022-10-19T17:56:02.345Z,7.22
2022-10-19T17:59:05.027Z,7.35
2022-10-19T18:02:09.063Z,7.03
2022-10-19T18:05:10.803Z,6.88
2022-10-19T18:08:12.365Z,7.47
2022-10-19T18:11:17.352Z,7.18
2022-10-19T18:14:19.140Z,6.68
2022-10-19T18:17:24.100Z,6.90
2022-10-19T18:20:28.533Z,6.05
2022-10-19T18:23:30.307Z,6.80
2022-10-19T18:26:33.478Z,7.03
2022-10-19T18:29:35.004Z,5.97
2022-10-19T18:32:37.524Z,5.68
2022-10-19T18:35:40.260Z,6.15
2022-10-19T18:38:42.239Z,5.82
2022-10-19T18:41:43.855Z,5.80
2022-10-19T18:44:47.163Z,5.72
2022-10-19T18:47:49.686Z,6.45
2022-10-19T18:50:52.458Z,6.72
2022-10-19T18:53:54.911Z,6.32
2022-10-19T18:56:56.602Z,6.75
2022-10-19T18:59:58.430Z,7.10
2022-10-19T19:02:59.953Z,7.15
2022-10-19T19:06:05.599Z,7.50
2022-10-19T19:09:09.686Z,6.60
2022-10-19T19:12:11.501Z,6.40
2022-10-19T19:15:13.435Z,6.55
2022-10-19T19:18:15.055Z,6.13
2022-10-19T19:21:28.406Z,7.05
2022-10-19T19:24:32.127Z,6.50
2022-10-19T19:27:34.007Z,6.95
2022-10-19T19:30:43.809Z,6.60
2022-10-19T19:33:47.055Z,7.60
2022-10-19T19:36:49.086Z,7.50
2022-10-19T19:39:51.383Z,6.90
2022-10-19T19:46:06.185Z,5.87
2022-10-19T19:49:10.879Z,6.85
2022-10-19T19:52:12.645Z,7.03
2022-10-19T19:55:14.445Z,6.93
2022-10-19T19:58:16.938Z,6.50
2022-10-19T20:01:21.020Z,6.72
2022-10-19T20:04:22.664Z,6.97
2022-10-19T20:07:26.957Z,6.50
2022-10-19T20:10:28.961Z,6.55
2022-10-19T20:13:31.592Z,6.65
2022-10-19T20:16:34.209Z,6.78
2022-10-19T20:19:35.721Z,6.47
2022-10-19T20:22:37.780Z,7.00
2022-10-19T20:25:39.231Z,7.70
2022-10-19T20:28:40.790Z,8.07
2022-10-19T20:31:42.334Z,8.40
2022-10-19T20:34:43.809Z,8.48
2022-10-19T20:37:48.780Z,8.38
2022-10-19T20:40:50.290Z,8.82
2022-10-19T20:43:53.719Z,8.65
2022-10-19T20:46:55.772Z,8.93
2022-10-19T20:52:58.907Z,8.85
2022-10-19T20:56:08.732Z,9.43
2022-10-19T20:59:22.767Z,9.30
2022-10-19T21:02:24.516Z,10.25
2022-10-19T21:05:26.017Z,10.82
2022-10-19T21:08:27.450Z,11.80
2022-10-19T21:11:31.610Z,10.73
2022-10-19T21:14:33.081Z,12.18
2022-10-19T21:17:35.101Z,10.82
2022-10-19T21:20:36.489Z,10.82
2022-10-19T21:23:38.055Z,11.13
2022-10-19T21:26:40.093Z,10.55
2022-10-19T21:29:41.656Z,11.55
2022-10-19T21:32:43.198Z,11.82
2022-10-19T21:35:44.715Z,11.75
2022-10-19T21:38:46.660Z,11.02
2022-10-19T21:41:48.905Z,10.70
2022-10-19T21:44:54.011Z,11.13
2022-10-19T21:48:02.514Z,10.90
2022-10-19T21:51:41.979Z,11.88
2022-10-19T21:54:43.468Z,11.02
2022-10-19T21:57:45.835Z,11.77
2022-10-19T22:00:48.124Z,9.73
2022-10-19T22:03:49.780Z,10.82
2022-10-19T22:06:51.352Z,10.65
2022-10-19T22:09:53.011Z,10.38
2022-10-19T22:12:55.905Z,10.23
2022-10-19T22:16:03.203Z,10.27
2022-10-19T22:19:05.574Z,11.15
2022-10-19T22:22:07.041Z,10.55
2022-10-19T22:25:08.614Z,9.70
2022-10-19T22:28:10.045Z,9.75
2022-10-19T22:31:12.513Z,11.27
2022-10-19T22:34:17.420Z,9.40
2022-10-19T22:37:18.804Z,10.93
2022-10-19T22:40:20.295Z,10.80
2022-10-19T22:43:21.667Z,10.48
2022-10-19T22:46:23.036Z,10.90
2022-10-19T22:49:24.455Z,10.80
2022-10-19T22:52:26.049Z,11.57
2022-10-19T22:55:28.232Z,11.00
2022-10-19T23:01:31.355Z,10.75
2022-10-19T23:04:32.867Z,11.00
2022-10-19T23:07:34.590Z,11.40
2022-10-19T23:10:36.257Z,10.85
2022-10-19T23:13:37.836Z,10.80
2022-10-19T23:16:39.208Z,11.00
2022-10-19T23:19:40.581Z,10.97
2022-10-19T23:22:41.987Z,11.17
2022-10-19T23:25:43.494Z,10.63
2022-10-19T23:28:46.699Z,11.30
2022-10-19T23:31:49.072Z,11.23
2022-10-19T23:34:53.642Z,11.18
2022-10-19T23:37:55.116Z,11.30
2022-10-19T23:40:56.659Z,11.40
2022-10-19T23:43:58.100Z,13.38
2022-10-19T23:46:59.544Z,13.00
2022-10-19T23:50:00.954Z,13.15
2022-10-19T23:53:02.411Z,12.13
2022-10-19T23:56:09.950Z,13.23
2022-10-19T23:59:11.603Z,12.05
